sensor_id;sensor_type;location;lat;lon;timestamp;pressure;altitude;pressure_sealevel;temperature;humidity
51603;BME280;37954;51.980;5.850;2023-07-28T00:04:08;100122.03;;;18.98;100.00
51603;BME280;37954;51.980;5.850;2023-07-28T00:08:21;100124.69;;;19.03;100.00
51603;BME280;37954;51.980;5.850;2023-07-28T00:12:34;100116.50;;;19.03;100.00
51603;BME280;37954;51.980;5.850;2023-07-28T00:16:46;100115.69;;;19.03;100.00
51603;BME280;37954;51.980;5.850;2023-07-28T00:20:57;100124.06;;;19.06;100.00
51603;BME280;37954;51.980;5.850;2023-07-28T00:25:09;100121.44;;;19.01;100.00
51603;BME280;37954;51.980;5.850;2023-07-28T00:29:21;100118.47;;;18.98;100.00
51603;BME280;37954;51.980;5.850;2023-07-28T00:33:33;100126.66;;;18.98;100.00
51603;BME280;37954;51.980;5.850;2023-07-28T00:37:44;100129.38;;;18.98;100.00
51603;BME280;37954;51.980;5.850;2023-07-28T00:41:56;100137.53;;;18.98;100.00
51603;BME280;37954;51.980;5.850;2023-07-28T00:46:09;100133.50;;;18.95;100.00
51603;BME280;37954;51.980;5.850;2023-07-28T00:50:21;100128.34;;;18.94;100.00
51603;BME280;37954;51.980;5.850;2023-07-28T00:54:34;100126.13;;;18.96;100.00
51603;BME280;37954;51.980;5.850;2023-07-28T00:58:46;100127.47;;;18.98;100.00
51603;BME280;37954;51.980;5.850;2023-07-28T01:02:57;100131.88;;;18.94;100.00
51603;BME280;37954;51.980;5.850;2023-07-28T01:07:14;100132.09;;;18.98;100.00
51603;BME280;37954;51.980;5.850;2023-07-28T01:11:28;100119.34;;;18.93;100.00
51603;BME280;37954;51.980;5.850;2023-07-28T01:15:40;100123.41;;;18.96;100.00
51603;BME280;37954;51.980;5.850;2023-07-28T01:19:52;100128.84;;;18.96;100.00
51603;BME280;37954;51.980;5.850;2023-07-28T01:24:21;100126.06;;;19.01;100.00
51603;BME280;37954;51.980;5.850;2023-07-28T01:28:35;100122.81;;;18.99;100.00
51603;BME280;37954;51.980;5.850;2023-07-28T01:32:48;100124.16;;;19.01;100.00
51603;BME280;37954;51.980;5.850;2023-07-28T01:37:00;100126.66;;;18.98;100.00
51603;BME280;37954;51.980;5.850;2023-07-28T01:41:12;100119.28;;;18.98;100.00
51603;BME280;37954;51.980;5.850;2023-07-28T01:45:24;100132.84;;;19.03;100.00
51603;BME280;37954;51.980;5.850;2023-07-28T01:49:36;100127.69;;;19.02;100.00
51603;BME280;37954;51.980;5.850;2023-07-28T01:53:47;100133.72;;;18.99;100.00
51603;BME280;37954;51.980;5.850;2023-07-28T01:58:00;100130.41;;;19.02;100.00
51603;BME280;37954;51.980;5.850;2023-07-28T02:02:12;100127.97;;;19.00;100.00
51603;BME280;37954;51.980;5.850;2023-07-28T02:06:25;100142.69;;;18.99;100.00
51603;BME280;37954;51.980;5.850;2023-07-28T02:10:36;100140.56;;;18.96;100.00
51603;BME280;37954;51.980;5.850;2023-07-28T02:14:48;100140.03;;;18.94;100.00
51603;BME280;37954;51.980;5.850;2023-07-28T02:19:00;100134.59;;;18.94;100.00
51603;BME280;37954;51.980;5.850;2023-07-28T02:23:12;100140.31;;;18.93;100.00
51603;BME280;37954;51.980;5.850;2023-07-28T02:27:25;100128.63;;;18.92;100.00
51603;BME280;37954;51.980;5.850;2023-07-28T02:31:39;100128.03;;;18.95;100.00
51603;BME280;37954;51.980;5.850;2023-07-28T02:35:50;100130.47;;;18.97;100.00
51603;BME280;37954;51.980;5.850;2023-07-28T02:40:03;100142.41;;;19.01;100.00
51603;BME280;37954;51.980;5.850;2023-07-28T02:44:15;100134.25;;;19.01;100.00
51603;BME280;37954;51.980;5.850;2023-07-28T02:48:27;100133.72;;;18.99;100.00
51603;BME280;37954;51.980;5.850;2023-07-28T02:52:38;100138.28;;;19.03;100.00
51603;BME280;37954;51.980;5.850;2023-07-28T02:56:50;100143.28;;;18.96;100.00
51603;BME280;37954;51.980;5.850;2023-07-28T03:01:02;100133.50;;;18.95;100.00
51603;BME280;37954;51.980;5.850;2023-07-28T03:05:20;100148.44;;;18.98;100.00
51603;BME280;37954;51.980;5.850;2023-07-28T03:09:55;100158.97;;;19.04;100.00
51603;BME280;37954;51.980;5.850;2023-07-28T03:14:07;100159.25;;;19.03;100.00
51603;BME280;37954;51.980;5.850;2023-07-28T03:18:19;100159.84;;;19.00;100.00
51603;BME280;37954;51.980;5.850;2023-07-28T03:22:31;100172.56;;;19.04;100.00
51603;BME280;37954;51.980;5.850;2023-07-28T03:26:43;100162.56;;;19.00;100.00
51603;BME280;37954;51.980;5.850;2023-07-28T03:30:55;100163.66;;;18.99;100.00
51603;BME280;37954;51.980;5.850;2023-07-28T03:35:07;100172.94;;;18.98;100.00
51603;BME280;37954;51.980;5.850;2023-07-28T03:39:24;100165.88;;;18.97;100.00
51603;BME280;37954;51.980;5.850;2023-07-28T03:43:36;100180.81;;;18.99;100.00
51603;BME280;37954;51.980;5.850;2023-07-28T03:47:48;100179.19;;;18.98;100.00
51603;BME280;37954;51.980;5.850;2023-07-28T03:52:00;100174.16;;;19.05;100.00
51603;BME280;37954;51.980;5.850;2023-07-28T03:56:11;100168.81;;;19.00;100.00
51603;BME280;37954;51.980;5.850;2023-07-28T04:00:23;100186.47;;;19.03;100.00
51603;BME280;37954;51.980;5.850;2023-07-28T04:04:35;100191.31;;;19.06;100.00
51603;BME280;37954;51.980;5.850;2023-07-28T04:08:48;100188.38;;;19.02;100.00
51603;BME280;37954;51.980;5.850;2023-07-28T04:12:59;100179.41;;;19.02;100.00
51603;BME280;37954;51.980;5.850;2023-07-28T04:17:11;100178.91;;;19.00;100.00
51603;BME280;37954;51.980;5.850;2023-07-28T04:21:23;100185.66;;;19.02;100.00
51603;BME280;37954;51.980;5.850;2023-07-28T04:25:35;100185.38;;;19.04;100.00
51603;BME280;37954;51.980;5.850;2023-07-28T04:29:47;100179.19;;;18.98;100.00
51603;BME280;37954;51.980;5.850;2023-07-28T04:34:04;100178.31;;;19.03;100.00
51603;BME280;37954;51.980;5.850;2023-07-28T04:38:34;100185.88;;;19.06;100.00
51603;BME280;37954;51.980;5.850;2023-07-28T04:42:46;100195.66;;;19.07;100.00
51603;BME280;37954;51.980;5.850;2023-07-28T04:46:58;100202.72;;;19.08;100.00
51603;BME280;37954;51.980;5.850;2023-07-28T04:51:10;100218.72;;;19.15;100.00
51603;BME280;37954;51.980;5.850;2023-07-28T04:55:40;100210.31;;;19.11;100.00
51603;BME280;37954;51.980;5.850;2023-07-28T04:59:52;100218.19;;;19.12;100.00
51603;BME280;37954;51.980;5.850;2023-07-28T05:04:04;100214.38;;;19.13;100.00
51603;BME280;37954;51.980;5.850;2023-07-28T05:08:16;100206.50;;;19.12;100.00
51603;BME280;37954;51.980;5.850;2023-07-28T05:12:28;100223.06;;;19.16;100.00
51603;BME280;37954;51.980;5.850;2023-07-28T05:16:40;100218.72;;;19.15;100.00
51603;BME280;37954;51.980;5.850;2023-07-28T05:20:55;100235.28;;;19.18;100.00
51603;BME280;37954;51.980;5.850;2023-07-28T05:25:07;100223.13;;;19.10;100.00
51603;BME280;37954;51.980;5.850;2023-07-28T05:29:22;100219.00;;;19.13;100.00
51603;BME280;37954;51.980;5.850;2023-07-28T05:33:34;100220.41;;;19.10;100.00
51603;BME280;37954;51.980;5.850;2023-07-28T05:37:47;100225.03;;;19.10;100.00
51603;BME280;37954;51.980;5.850;2023-07-28T05:41:59;100222.81;;;19.12;100.00
51603;BME280;37954;51.980;5.850;2023-07-28T05:46:11;100227.47;;;19.11;100.00
51603;BME280;37954;51.980;5.850;2023-07-28T05:50:24;100237.47;;;19.16;100.00
51603;BME280;37954;51.980;5.850;2023-07-28T05:54:35;100239.63;;;19.19;100.00
51603;BME280;37954;51.980;5.850;2023-07-28T05:58:47;100244.47;;;19.22;100.00
51603;BME280;37954;51.980;5.850;2023-07-28T06:03:00;100243.06;;;19.25;100.00
51603;BME280;37954;51.980;5.850;2023-07-28T06:07:35;100253.91;;;19.30;100.00
51603;BME280;37954;51.980;5.850;2023-07-28T06:11:46;100242.13;;;19.34;100.00
51603;BME280;37954;51.980;5.850;2023-07-28T06:15:59;100218.84;;;19.23;100.00
51603;BME280;37954;51.980;5.850;2023-07-28T06:20:11;100242.28;;;19.43;100.00
51603;BME280;37954;51.980;5.850;2023-07-28T06:24:23;100256.91;;;19.52;100.00
51603;BME280;37954;51.980;5.850;2023-07-28T06:28:34;100263.00;;;19.63;100.00
51603;BME280;37954;51.980;5.850;2023-07-28T06:32:47;100268.69;;;19.66;100.00
51603;BME280;37954;51.980;5.850;2023-07-28T06:36:59;100271.69;;;19.65;100.00
51603;BME280;37954;51.980;5.850;2023-07-28T06:41:10;100278.72;;;19.71;100.00
51603;BME280;37954;51.980;5.850;2023-07-28T06:45:22;100284.16;;;19.71;100.00
51603;BME280;37954;51.980;5.850;2023-07-28T06:49:34;100294.47;;;19.74;100.00
51603;BME280;37954;51.980;5.850;2023-07-28T06:53:45;100304.25;;;19.75;100.00
51603;BME280;37954;51.980;5.850;2023-07-28T06:57:57;100301.84;;;19.73;100.00
51603;BME280;37954;51.980;5.850;2023-07-28T07:02:09;100304.25;;;19.75;100.00
51603;BME280;37954;51.980;5.850;2023-07-28T07:06:22;100302.50;;;19.84;100.00
51603;BME280;37954;51.980;5.850;2023-07-28T07:10:34;100306.91;;;19.99;100.00
51603;BME280;37954;51.980;5.850;2023-07-28T07:14:46;100317.34;;;20.10;100.00
51603;BME280;37954;51.980;5.850;2023-07-28T07:18:57;100317.91;;;20.26;100.00
51603;BME280;37954;51.980;5.850;2023-07-28T07:23:09;100328.13;;;20.53;100.00
51603;BME280;37954;51.980;5.850;2023-07-28T07:27:23;100330.88;;;20.67;100.00
51603;BME280;37954;51.980;5.850;2023-07-28T07:31:35;100332.72;;;20.71;100.00
51603;BME280;37954;51.980;5.850;2023-07-28T07:35:48;100333.75;;;20.75;99.80
51603;BME280;37954;51.980;5.850;2023-07-28T07:40:00;100338.28;;;20.80;99.24
51603;BME280;37954;51.980;5.850;2023-07-28T07:44:12;100342.25;;;20.88;98.26
51603;BME280;37954;51.980;5.850;2023-07-28T07:48:24;100349.03;;;20.90;97.68
51603;BME280;37954;51.980;5.850;2023-07-28T07:52:37;100351.97;;;20.94;96.85
51603;BME280;37954;51.980;5.850;2023-07-28T07:56:52;100345.63;;;21.12;96.35
51603;BME280;37954;51.980;5.850;2023-07-28T08:01:04;100353.25;;;21.29;95.82
51603;BME280;37954;51.980;5.850;2023-07-28T08:05:16;100351.72;;;21.36;95.13
51603;BME280;37954;51.980;5.850;2023-07-28T08:09:28;100359.88;;;21.50;94.51
51603;BME280;37954;51.980;5.850;2023-07-28T08:13:40;100356.66;;;21.62;93.70
51603;BME280;37954;51.980;5.850;2023-07-28T08:17:52;100356.91;;;21.87;93.04
51603;BME280;37954;51.980;5.850;2023-07-28T08:22:04;100364.16;;;22.06;91.91
51603;BME280;37954;51.980;5.850;2023-07-28T08:26:16;100376.94;;;22.10;90.04
51603;BME280;37954;51.980;5.850;2023-07-28T08:30:27;100378.47;;;22.03;88.91
51603;BME280;37954;51.980;5.850;2023-07-28T08:34:39;100378.88;;;21.82;88.11
51603;BME280;37954;51.980;5.850;2023-07-28T08:38:51;100383.53;;;21.82;88.42
51603;BME280;37954;51.980;5.850;2023-07-28T08:43:04;100395.38;;;21.91;88.66
51603;BME280;37954;51.980;5.850;2023-07-28T08:47:16;100377.84;;;21.92;88.29
51603;BME280;37954;51.980;5.850;2023-07-28T08:51:33;100390.72;;;22.05;88.11
51603;BME280;37954;51.980;5.850;2023-07-28T08:55:45;100399.94;;;22.09;87.64
51603;BME280;37954;51.980;5.850;2023-07-28T08:59:57;100397.00;;;22.06;86.90
51603;BME280;37954;51.980;5.850;2023-07-28T09:04:10;100386.97;;;21.87;86.63
51603;BME280;37954;51.980;5.850;2023-07-28T09:08:22;100395.78;;;21.84;86.69
51603;BME280;37954;51.980;5.850;2023-07-28T09:12:44;100407.44;;;21.90;86.76
51603;BME280;37954;51.980;5.850;2023-07-28T09:17:15;100406.03;;;21.93;86.74
51603;BME280;37954;51.980;5.850;2023-07-28T09:21:28;100408.56;;;21.89;86.72
51603;BME280;37954;51.980;5.850;2023-07-28T09:25:40;100402.47;;;22.06;87.09
51603;BME280;37954;51.980;5.850;2023-07-28T09:29:53;100417.16;;;22.46;86.93
51603;BME280;37954;51.980;5.850;2023-07-28T09:34:08;100402.19;;;22.97;86.16
51603;BME280;37954;51.980;5.850;2023-07-28T09:38:21;100403.69;;;23.42;84.32
51603;BME280;37954;51.980;5.850;2023-07-28T09:42:34;100412.22;;;23.72;81.76
51603;BME280;37954;51.980;5.850;2023-07-28T09:46:55;100409.00;;;23.95;80.13
51603;BME280;37954;51.980;5.850;2023-07-28T09:51:34;100421.16;;;24.20;79.24
51603;BME280;37954;51.980;5.850;2023-07-28T09:55:49;100424.53;;;24.09;76.78
51603;BME280;37954;51.980;5.850;2023-07-28T10:00:03;100418.56;;;23.89;76.82
51603;BME280;37954;51.980;5.850;2023-07-28T10:04:22;100417.41;;;24.08;77.66
51603;BME280;37954;51.980;5.850;2023-07-28T10:08:34;100414.84;;;24.80;77.04
51603;BME280;37954;51.980;5.850;2023-07-28T10:12:47;100419.19;;;26.04;74.85
51603;BME280;37954;51.980;5.850;2023-07-28T10:17:00;100418.22;;;27.28;72.02
51603;BME280;37954;51.980;5.850;2023-07-28T10:21:16;100428.88;;;28.27;67.97
51603;BME280;37954;51.980;5.850;2023-07-28T10:25:32;100424.41;;;29.06;63.47
51603;BME280;37954;51.980;5.850;2023-07-28T10:29:56;100431.09;;;29.68;60.79
51603;BME280;37954;51.980;5.850;2023-07-28T10:34:07;100418.13;;;29.09;58.94
51603;BME280;37954;51.980;5.850;2023-07-28T10:38:34;100424.22;;;28.99;58.78
51603;BME280;37954;51.980;5.850;2023-07-28T10:42:48;100432.91;;;29.61;58.97
51603;BME280;37954;51.980;5.850;2023-07-28T10:46:59;100413.44;;;29.57;56.72
51603;BME280;37954;51.980;5.850;2023-07-28T10:51:12;100414.47;;;29.84;55.40
51603;BME280;37954;51.980;5.850;2023-07-28T10:55:30;100421.22;;;29.52;54.56
51603;BME280;37954;51.980;5.850;2023-07-28T10:59:43;100417.31;;;28.93;55.09
51603;BME280;37954;51.980;5.850;2023-07-28T11:03:55;100417.34;;;28.37;56.78
51603;BME280;37954;51.980;5.850;2023-07-28T11:08:06;100428.19;;;28.06;57.85
51603;BME280;37954;51.980;5.850;2023-07-28T11:12:21;100428.50;;;27.64;58.12
51603;BME280;37954;51.980;5.850;2023-07-28T11:16:38;100426.50;;;27.28;58.91
51603;BME280;37954;51.980;5.850;2023-07-28T11:20:50;100432.34;;;27.15;59.15
51603;BME280;37954;51.980;5.850;2023-07-28T11:25:06;100425.91;;;26.90;60.06
51603;BME280;37954;51.980;5.850;2023-07-28T11:29:21;100429.00;;;26.55;60.42
51603;BME280;37954;51.980;5.850;2023-07-28T11:33:32;100422.63;;;26.22;61.23
51603;BME280;37954;51.980;5.850;2023-07-28T11:37:46;100437.72;;;26.16;62.17
51603;BME280;37954;51.980;5.850;2023-07-28T11:41:58;100422.72;;;26.13;62.67
51603;BME280;37954;51.980;5.850;2023-07-28T11:50:44;100426.09;;;26.73;62.55
51603;BME280;37954;51.980;5.850;2023-07-28T11:55:00;100431.53;;;27.26;62.13
51603;BME280;37954;51.980;5.850;2023-07-28T11:59:14;100429.53;;;27.60;60.64
51603;BME280;37954;51.980;5.850;2023-07-28T12:03:29;100434.81;;;27.77;59.32
51603;BME280;37954;51.980;5.850;2023-07-28T12:07:47;100432.50;;;27.79;58.49
51603;BME280;37954;51.980;5.850;2023-07-28T12:11:59;100437.66;;;27.93;58.18
51603;BME280;37954;51.980;5.850;2023-07-28T12:16:40;100439.25;;;28.06;57.89
51603;BME280;37954;51.980;5.850;2023-07-28T12:20:58;100436.03;;;28.16;57.83
51603;BME280;37954;51.980;5.850;2023-07-28T12:25:11;100434.19;;;28.08;58.05
51603;BME280;37954;51.980;5.850;2023-07-28T12:29:23;100442.00;;;28.06;57.50
51603;BME280;37954;51.980;5.850;2023-07-28T12:33:41;100439.34;;;28.10;57.49
51603;BME280;37954;51.980;5.850;2023-07-28T12:37:53;100437.38;;;28.34;57.66
51603;BME280;37954;51.980;5.850;2023-07-28T12:42:08;100448.91;;;28.64;57.29
51603;BME280;37954;51.980;5.850;2023-07-28T12:46:23;100445.97;;;28.85;55.63
51603;BME280;37954;51.980;5.850;2023-07-28T12:50:35;100445.19;;;28.72;54.54
51603;BME280;37954;51.980;5.850;2023-07-28T12:54:49;100435.00;;;28.89;54.85
51603;BME280;37954;51.980;5.850;2023-07-28T12:59:01;100437.16;;;29.11;53.85
51603;BME280;37954;51.980;5.850;2023-07-28T13:03:16;100443.25;;;29.32;53.37
51603;BME280;37954;51.980;5.850;2023-07-28T13:07:28;100437.50;;;29.09;52.91
51603;BME280;37954;51.980;5.850;2023-07-28T13:11:44;100426.16;;;28.99;52.96
51603;BME280;37954;51.980;5.850;2023-07-28T13:15:58;100430.91;;;28.98;52.82
51603;BME280;37954;51.980;5.850;2023-07-28T13:20:10;100435.00;;;28.89;53.19
51603;BME280;37954;51.980;5.850;2023-07-28T13:24:22;100424.19;;;28.84;53.52
51603;BME280;37954;51.980;5.850;2023-07-28T13:28:34;100431.09;;;28.77;53.75
51603;BME280;37954;51.980;5.850;2023-07-28T13:32:47;100409.91;;;28.54;53.22
51603;BME280;37954;51.980;5.850;2023-07-28T13:36:59;100414.88;;;28.48;53.29
51603;BME280;37954;51.980;5.850;2023-07-28T13:41:10;100424.56;;;28.42;53.50
51603;BME280;37954;51.980;5.850;2023-07-28T13:45:22;100431.00;;;28.46;53.90
51603;BME280;37954;51.980;5.850;2023-07-28T13:49:34;100417.34;;;28.65;53.81
51603;BME280;37954;51.980;5.850;2023-07-28T13:54:02;100420.69;;;28.59;52.37
51603;BME280;37954;51.980;5.850;2023-07-28T13:58:17;100415.03;;;28.39;51.84
51603;BME280;37954;51.980;5.850;2023-07-28T14:02:28;100414.28;;;28.15;52.89
51603;BME280;37954;51.980;5.850;2023-07-28T14:06:40;100416.59;;;27.88;54.11
51603;BME280;37954;51.980;5.850;2023-07-28T14:10:52;100403.97;;;27.87;55.18
51603;BME280;37954;51.980;5.850;2023-07-28T14:15:04;100395.56;;;27.96;54.80
51603;BME280;37954;51.980;5.850;2023-07-28T14:19:17;100400.69;;;28.10;53.46
51603;BME280;37954;51.980;5.850;2023-07-28T14:23:29;100399.63;;;28.26;52.85
51603;BME280;37954;51.980;5.850;2023-07-28T14:27:41;100391.97;;;28.20;52.67
51603;BME280;37954;51.980;5.850;2023-07-28T14:31:52;100410.22;;;28.24;52.87
51603;BME280;37954;51.980;5.850;2023-07-28T14:36:05;100404.97;;;28.19;52.98
51603;BME280;37954;51.980;5.850;2023-07-28T14:40:16;100419.78;;;28.27;52.73
51603;BME280;37954;51.980;5.850;2023-07-28T14:44:28;100409.91;;;28.14;52.54
51603;BME280;37954;51.980;5.850;2023-07-28T14:48:40;100414.50;;;28.10;53.28
51603;BME280;37954;51.980;5.850;2023-07-28T14:52:52;100399.66;;;28.14;52.96
51603;BME280;37954;51.980;5.850;2023-07-28T14:57:04;100411.75;;;28.10;53.03
51603;BME280;37954;51.980;5.850;2023-07-28T15:01:18;100394.53;;;27.88;53.29
51603;BME280;37954;51.980;5.850;2023-07-28T15:05:31;100411.47;;;27.87;53.97
51603;BME280;37954;51.980;5.850;2023-07-28T15:09:43;100408.81;;;27.78;54.39
51603;BME280;37954;51.980;5.850;2023-07-28T15:13:54;100423.88;;;27.81;54.53
51603;BME280;37954;51.980;5.850;2023-07-28T15:18:06;100417.31;;;27.73;54.72
51603;BME280;37954;51.980;5.850;2023-07-28T15:22:18;100404.06;;;27.54;55.05
51603;BME280;37954;51.980;5.850;2023-07-28T15:26:29;100415.13;;;27.30;56.29
51603;BME280;37954;51.980;5.850;2023-07-28T15:30:42;100411.19;;;27.19;56.51
51603;BME280;37954;51.980;5.850;2023-07-28T15:34:57;100414.53;;;27.12;57.27
51603;BME280;37954;51.980;5.850;2023-07-28T15:39:08;100411.50;;;27.05;57.95
51603;BME280;37954;51.980;5.850;2023-07-28T15:43:20;100387.44;;;26.93;58.65
51603;BME280;37954;51.980;5.850;2023-07-28T15:47:32;100402.13;;;27.18;58.53
51603;BME280;37954;51.980;5.850;2023-07-28T15:51:45;100415.91;;;27.43;57.93
51603;BME280;37954;51.980;5.850;2023-07-28T15:55:57;100413.75;;;27.36;56.92
51603;BME280;37954;51.980;5.850;2023-07-28T16:00:09;100419.31;;;27.03;57.24
51603;BME280;37954;51.980;5.850;2023-07-28T16:04:24;100419.03;;;26.84;57.71
51603;BME280;37954;51.980;5.850;2023-07-28T16:08:36;100410.94;;;26.66;58.19
51603;BME280;37954;51.980;5.850;2023-07-28T16:12:47;100413.44;;;26.59;58.54
51603;BME280;37954;51.980;5.850;2023-07-28T16:16:59;100407.53;;;26.49;58.48
51603;BME280;37954;51.980;5.850;2023-07-28T16:21:11;100411.97;;;26.41;58.30
51603;BME280;37954;51.980;5.850;2023-07-28T16:25:22;100413.72;;;26.46;58.59
51603;BME280;37954;51.980;5.850;2023-07-28T16:29:34;100407.59;;;26.40;58.70
51603;BME280;37954;51.980;5.850;2023-07-28T16:33:46;100392.31;;;26.22;59.16
51603;BME280;37954;51.980;5.850;2023-07-28T16:37:58;100403.31;;;26.30;59.48
51603;BME280;37954;51.980;5.850;2023-07-28T16:42:10;100409.75;;;26.34;59.61
51603;BME280;37954;51.980;5.850;2023-07-28T16:46:22;100399.78;;;26.21;59.83
51603;BME280;37954;51.980;5.850;2023-07-28T16:50:34;100405.91;;;26.06;59.53
51603;BME280;37954;51.980;5.850;2023-07-28T16:54:45;100406.50;;;25.91;60.16
51603;BME280;37954;51.980;5.850;2023-07-28T16:58:57;100404.06;;;25.89;60.33
51603;BME280;37954;51.980;5.850;2023-07-28T17:03:09;100409.09;;;25.87;60.78
51603;BME280;37954;51.980;5.850;2023-07-28T17:07:21;100407.75;;;25.73;60.86
51603;BME280;37954;51.980;5.850;2023-07-28T17:11:33;100413.34;;;25.47;61.71
51603;BME280;37954;51.980;5.850;2023-07-28T17:15:45;100424.63;;;25.24;63.19
51603;BME280;37954;51.980;5.850;2023-07-28T17:19:57;100422.47;;;24.75;63.68
51603;BME280;37954;51.980;5.850;2023-07-28T17:24:09;100427.00;;;24.53;64.73
51603;BME280;37954;51.980;5.850;2023-07-28T17:28:21;100430.22;;;24.64;64.91
51603;BME280;37954;51.980;5.850;2023-07-28T17:32:33;100414.88;;;24.54;64.92
51603;BME280;37954;51.980;5.850;2023-07-28T17:36:45;100424.75;;;24.55;65.26
51603;BME280;37954;51.980;5.850;2023-07-28T17:40:56;100416.81;;;24.54;65.28
51603;BME280;37954;51.980;5.850;2023-07-28T17:45:08;100426.34;;;24.48;65.07
51603;BME280;37954;51.980;5.850;2023-07-28T17:49:20;100420.84;;;24.31;65.32
51603;BME280;37954;51.980;5.850;2023-07-28T17:53:32;100410.66;;;24.22;65.68
51603;BME280;37954;51.980;5.850;2023-07-28T17:57:44;100414.03;;;24.11;66.16
51603;BME280;37954;51.980;5.850;2023-07-28T18:01:56;100423.41;;;24.01;66.53
51603;BME280;37954;51.980;5.850;2023-07-28T18:06:07;100417.75;;;23.98;67.00
51603;BME280;37954;51.980;5.850;2023-07-28T18:10:22;100427.91;;;23.88;67.40
51603;BME280;37954;51.980;5.850;2023-07-28T18:14:34;100418.03;;;23.79;67.74
51603;BME280;37954;51.980;5.850;2023-07-28T18:18:46;100405.06;;;23.62;67.93
51603;BME280;37954;51.980;5.850;2023-07-28T18:22:57;100430.13;;;23.69;68.30
51603;BME280;37954;51.980;5.850;2023-07-28T18:27:09;100436.09;;;23.71;68.13
51603;BME280;37954;51.980;5.850;2023-07-28T18:31:21;100434.25;;;23.58;68.06
51603;BME280;37954;51.980;5.850;2023-07-28T18:35:33;100408.03;;;23.35;68.07
51603;BME280;37954;51.980;5.850;2023-07-28T18:39:45;100422.84;;;23.34;68.25
51603;BME280;37954;51.980;5.850;2023-07-28T18:43:56;100400.31;;;23.06;68.36
51603;BME280;37954;51.980;5.850;2023-07-28T18:48:08;100418.34;;;23.07;68.78
51603;BME280;37954;51.980;5.850;2023-07-28T18:52:20;100428.00;;;23.04;69.24
51603;BME280;37954;51.980;5.850;2023-07-28T18:56:32;100429.78;;;23.00;69.80
51603;BME280;37954;51.980;5.850;2023-07-28T19:00:44;100433.28;;;22.92;69.77
51603;BME280;37954;51.980;5.850;2023-07-28T19:04:56;100432.41;;;22.83;70.40
51603;BME280;37954;51.980;5.850;2023-07-28T19:09:08;100432.59;;;22.64;70.74
51603;BME280;37954;51.980;5.850;2023-07-28T19:13:21;100448.63;;;22.57;71.02
51603;BME280;37954;51.980;5.850;2023-07-28T19:17:32;100440.16;;;22.45;71.07
51603;BME280;37954;51.980;5.850;2023-07-28T19:21:44;100442.94;;;22.31;71.45
51603;BME280;37954;51.980;5.850;2023-07-28T19:25:57;100429.91;;;22.14;72.05
51603;BME280;37954;51.980;5.850;2023-07-28T19:30:10;100440.06;;;22.14;72.11
51603;BME280;37954;51.980;5.850;2023-07-28T19:34:22;100450.28;;;22.08;72.46
51603;BME280;37954;51.980;5.850;2023-07-28T19:38:33;100435.00;;;21.94;72.84
51603;BME280;37954;51.980;5.850;2023-07-28T19:42:45;100451.41;;;21.94;73.42
51603;BME280;37954;51.980;5.850;2023-07-28T19:46:57;100449.38;;;21.85;73.84
51603;BME280;37954;51.980;5.850;2023-07-28T19:51:12;100428.72;;;21.66;74.11
51603;BME280;37954;51.980;5.850;2023-07-28T19:55:23;100450.09;;;21.77;74.47
51603;BME280;37954;51.980;5.850;2023-07-28T19:59:35;100455.97;;;21.71;74.77
51603;BME280;37954;51.980;5.850;2023-07-28T20:03:47;100451.22;;;21.63;75.13
51603;BME280;37954;51.980;5.850;2023-07-28T20:07:59;100445.75;;;21.63;75.38
51603;BME280;37954;51.980;5.850;2023-07-28T20:12:11;100428.53;;;21.48;75.98
51603;BME280;37954;51.980;5.850;2023-07-28T20:16:23;100433.00;;;21.44;75.96
51603;BME280;37954;51.980;5.850;2023-07-28T20:20:36;100447.47;;;21.45;76.16
51603;BME280;37954;51.980;5.850;2023-07-28T20:24:48;100432.38;;;21.34;76.57
51603;BME280;37954;51.980;5.850;2023-07-28T20:29:01;100452.94;;;21.45;76.80
51603;BME280;37954;51.980;5.850;2023-07-28T20:33:14;100442.81;;;21.45;77.17
51603;BME280;37954;51.980;5.850;2023-07-28T20:37:25;100419.94;;;21.28;77.33
51603;BME280;37954;51.980;5.850;2023-07-28T20:41:37;100411.91;;;21.31;77.45
51603;BME280;37954;51.980;5.850;2023-07-28T20:45:49;100433.31;;;21.43;77.45
51603;BME280;37954;51.980;5.850;2023-07-28T20:50:01;100444.44;;;21.46;77.43
51603;BME280;37954;51.980;5.850;2023-07-28T20:54:12;100438.47;;;21.44;77.55
51603;BME280;37954;51.980;5.850;2023-07-28T20:58:24;100434.41;;;21.42;77.64
51603;BME280;37954;51.980;5.850;2023-07-28T21:02:37;100422.75;;;21.36;77.54
51603;BME280;37954;51.980;5.850;2023-07-28T21:06:49;100432.38;;;21.34;77.65
51603;BME280;37954;51.980;5.850;2023-07-28T21:11:01;100438.03;;;21.24;77.71
51603;BME280;37954;51.980;5.850;2023-07-28T21:15:13;100439.31;;;21.12;78.04
51603;BME280;37954;51.980;5.850;2023-07-28T21:19:25;100428.44;;;20.94;78.41
51603;BME280;37954;51.980;5.850;2023-07-28T21:23:37;100430.53;;;20.83;78.68
51603;BME280;37954;51.980;5.850;2023-07-28T21:27:49;100437.69;;;20.79;79.00
51603;BME280;37954;51.980;5.850;2023-07-28T21:32:01;100435.13;;;20.69;79.52
51603;BME280;37954;51.980;5.850;2023-07-28T21:36:13;100428.81;;;20.55;79.82
51603;BME280;37954;51.980;5.850;2023-07-28T21:40:25;100441.66;;;20.54;80.22
51603;BME280;37954;51.980;5.850;2023-07-28T21:44:37;100449.84;;;20.54;80.63
51603;BME280;37954;51.980;5.850;2023-07-28T21:48:57;100443.06;;;20.52;80.87
51603;BME280;37954;51.980;5.850;2023-07-28T21:53:09;100426.44;;;20.48;81.30
51603;BME280;37954;51.980;5.850;2023-07-28T21:57:20;100445.25;;;20.49;81.33
51603;BME280;37954;51.980;5.850;2023-07-28T22:01:32;100423.31;;;20.41;81.63